KERI/ERI METAR and TAF weather

Enter ICAO airport designator
Station Type Date Time Source
KERI METAR 2021/03/08 14:51 UTC NOAA

KERI 081451Z 19008KT 10SM OVC070 01/M08 A3041 RMK AO2 SLP308 T00111083 57008


Station Type Date Time Source
KERI Decoded METAR 2021/03/08 14:51 UTC NOAA

ERIE INTERNATIONAL AIRPORT, PA, United States (KERI) 42-05N 080-11W 222M
Mar 08, 2021 - 09:51 AM EST / 2021.03.08 1451 UTC
Wind: from the S (190 degrees) at 9 MPH (8 KT):0
Visibility: 10 mile(s):0
Sky conditions: overcast
Temperature: 34.0 F (1.1 C)
Windchill: 26 F (-3 C):1
Dew Point: 17.1 F (-8.3 C)
Relative Humidity: 49%
Pressure (altimeter): 30.41 in. Hg (1029 hPa)
Pressure tendency: 0.02 inches (0.8 hPa) lower than three hours ago
ob: KERI 081451Z 19008KT 10SM OVC070 01/M08 A3041 RMK AO2 SLP308 T00111083 57008
cycle: 15

Station Type Date Time Source
KERI TAF 2021/03/08 12:34 UTC NOAA

TAF KERI 081132Z 0812/0912 18005KT P6SM SKC
FM081800 20012G20KT P6SM SCT130
FM090200 24010KT P6SM BKN050
FM091100 VRB03KT P6SM BKN015

Example: see airport list